sensor_id;sensor_type;location;lat;lon;timestamp;P1;durP1;ratioP1;P2;durP2;ratioP2
55931;SDS011;41837;55.700;37.984;2022-12-15T00:01:22;19.00;;;7.68;;
55931;SDS011;41837;55.700;37.984;2022-12-15T00:06:53;15.68;;;7.78;;
55931;SDS011;41837;55.700;37.984;2022-12-15T00:10:01;16.85;;;6.85;;
55931;SDS011;41837;55.700;37.984;2022-12-15T00:12:46;15.43;;;7.32;;
55931;SDS011;41837;55.700;37.984;2022-12-15T00:15:30;19.20;;;8.05;;
55931;SDS011;41837;55.700;37.984;2022-12-15T00:18:16;13.18;;;7.10;;
55931;SDS011;41837;55.700;37.984;2022-12-15T00:21:01;15.80;;;7.35;;
55931;SDS011;41837;55.700;37.984;2022-12-15T00:23:45;15.98;;;7.72;;
55931;SDS011;41837;55.700;37.984;2022-12-15T00:26:30;15.37;;;7.50;;
55931;SDS011;41837;55.700;37.984;2022-12-15T00:29:15;18.85;;;9.00;;
55931;SDS011;41837;55.700;37.984;2022-12-15T00:31:59;17.95;;;9.13;;
55931;SDS011;41837;55.700;37.984;2022-12-15T00:34:44;17.08;;;8.60;;
55931;SDS011;41837;55.700;37.984;2022-12-15T00:37:30;21.60;;;8.75;;
55931;SDS011;41837;55.700;37.984;2022-12-15T00:40:15;20.20;;;8.98;;
55931;SDS011;41837;55.700;37.984;2022-12-15T00:42:41;20.70;;;8.70;;
55931;SDS011;41837;55.700;37.984;2022-12-15T00:45:08;19.55;;;9.43;;
55931;SDS011;41837;55.700;37.984;2022-12-15T00:47:35;19.92;;;9.65;;
55931;SDS011;41837;55.700;37.984;2022-12-15T00:50:02;17.98;;;8.77;;
55931;SDS011;41837;55.700;37.984;2022-12-15T00:52:47;19.13;;;9.15;;
55931;SDS011;41837;55.700;37.984;2022-12-15T00:55:32;18.73;;;9.23;;
55931;SDS011;41837;55.700;37.984;2022-12-15T00:58:17;18.88;;;9.90;;
55931;SDS011;41837;55.700;37.984;2022-12-15T01:01:06;20.33;;;9.93;;
55931;SDS011;41837;55.700;37.984;2022-12-15T01:03:53;19.38;;;9.23;;
55931;SDS011;41837;55.700;37.984;2022-12-15T01:06:39;21.63;;;9.95;;
55931;SDS011;41837;55.700;37.984;2022-12-15T01:09:24;23.17;;;9.40;;
55931;SDS011;41837;55.700;37.984;2022-12-15T01:12:10;23.40;;;9.20;;
55931;SDS011;41837;55.700;37.984;2022-12-15T01:14:55;19.08;;;8.50;;
55931;SDS011;41837;55.700;37.984;2022-12-15T01:17:39;20.98;;;9.48;;
55931;SDS011;41837;55.700;37.984;2022-12-15T01:20:24;18.63;;;9.60;;
55931;SDS011;41837;55.700;37.984;2022-12-15T01:22:54;17.42;;;9.63;;
55931;SDS011;41837;55.700;37.984;2022-12-15T01:25:22;16.77;;;8.93;;
55931;SDS011;41837;55.700;37.984;2022-12-15T01:27:49;18.17;;;9.05;;
55931;SDS011;41837;55.700;37.984;2022-12-15T01:30:21;19.77;;;9.40;;
55931;SDS011;41837;55.700;37.984;2022-12-15T01:32:49;19.75;;;9.07;;
55931;SDS011;41837;55.700;37.984;2022-12-15T01:35:16;19.85;;;9.88;;
55931;SDS011;41837;55.700;37.984;2022-12-15T01:37:43;21.58;;;9.98;;
55931;SDS011;41837;55.700;37.984;2022-12-15T01:40:16;20.67;;;10.32;;
55931;SDS011;41837;55.700;37.984;2022-12-15T01:43:01;24.70;;;10.15;;
55931;SDS011;41837;55.700;37.984;2022-12-15T01:50:20;19.52;;;10.18;;
55931;SDS011;41837;55.700;37.984;2022-12-15T01:52:49;21.40;;;9.85;;
55931;SDS011;41837;55.700;37.984;2022-12-15T01:55:16;22.15;;;9.77;;
55931;SDS011;41837;55.700;37.984;2022-12-15T01:57:45;22.67;;;10.40;;
55931;SDS011;41837;55.700;37.984;2022-12-15T02:00:12;21.02;;;9.80;;
55931;SDS011;41837;55.700;37.984;2022-12-15T02:02:40;22.48;;;10.20;;
55931;SDS011;41837;55.700;37.984;2022-12-15T02:05:07;21.38;;;9.50;;
55931;SDS011;41837;55.700;37.984;2022-12-15T02:07:34;19.60;;;10.00;;
55931;SDS011;41837;55.700;37.984;2022-12-15T02:10:01;24.05;;;9.23;;
55931;SDS011;41837;55.700;37.984;2022-12-15T02:15:33;28.30;;;9.65;;
55931;SDS011;41837;55.700;37.984;2022-12-15T02:26:06;30.05;;;14.40;;
55931;SDS011;41837;55.700;37.984;2022-12-15T02:31:35;40.33;;;18.13;;
55931;SDS011;41837;55.700;37.984;2022-12-15T02:36:53;45.25;;;22.40;;
55931;SDS011;41837;55.700;37.984;2022-12-15T02:39:23;50.50;;;24.77;;
55931;SDS011;41837;55.700;37.984;2022-12-15T02:41:50;46.67;;;23.40;;
55931;SDS011;41837;55.700;37.984;2022-12-15T02:58:50;69.80;;;35.15;;
55931;SDS011;41837;55.700;37.984;2022-12-15T03:01:33;76.70;;;36.00;;
55931;SDS011;41837;55.700;37.984;2022-12-15T03:04:05;72.88;;;34.85;;
55931;SDS011;41837;55.700;37.984;2022-12-15T03:06:34;78.90;;;35.78;;
55931;SDS011;41837;55.700;37.984;2022-12-15T03:09:01;56.63;;;25.42;;
55931;SDS011;41837;55.700;37.984;2022-12-15T03:11:28;46.42;;;21.42;;
55931;SDS011;41837;55.700;37.984;2022-12-15T03:13:56;40.03;;;18.95;;
55931;SDS011;41837;55.700;37.984;2022-12-15T03:16:23;33.92;;;15.52;;
55931;SDS011;41837;55.700;37.984;2022-12-15T03:18:50;34.70;;;14.93;;
55931;SDS011;41837;55.700;37.984;2022-12-15T03:21:17;34.08;;;15.18;;
55931;SDS011;41837;55.700;37.984;2022-12-15T03:23:43;31.58;;;13.38;;
55931;SDS011;41837;55.700;37.984;2022-12-15T03:26:09;31.30;;;13.15;;
55931;SDS011;41837;55.700;37.984;2022-12-15T03:28:36;29.67;;;12.27;;
55931;SDS011;41837;55.700;37.984;2022-12-15T03:31:03;31.98;;;14.02;;
55931;SDS011;41837;55.700;37.984;2022-12-15T03:33:31;31.65;;;13.63;;
55931;SDS011;41837;55.700;37.984;2022-12-15T03:35:59;35.58;;;14.32;;
55931;SDS011;41837;55.700;37.984;2022-12-15T03:38:26;35.03;;;14.48;;
55931;SDS011;41837;55.700;37.984;2022-12-15T03:40:52;35.95;;;14.77;;
55931;SDS011;41837;55.700;37.984;2022-12-15T03:43:19;31.77;;;14.48;;
55931;SDS011;41837;55.700;37.984;2022-12-15T03:45:45;33.80;;;14.30;;
55931;SDS011;41837;55.700;37.984;2022-12-15T03:48:11;36.72;;;14.45;;
55931;SDS011;41837;55.700;37.984;2022-12-15T03:50:38;37.40;;;15.48;;
55931;SDS011;41837;55.700;37.984;2022-12-15T03:53:06;35.10;;;14.45;;
55931;SDS011;41837;55.700;37.984;2022-12-15T03:55:35;32.30;;;15.35;;
55931;SDS011;41837;55.700;37.984;2022-12-15T03:58:01;36.85;;;15.45;;
55931;SDS011;41837;55.700;37.984;2022-12-15T04:00:28;31.08;;;14.55;;
55931;SDS011;41837;55.700;37.984;2022-12-15T04:02:54;33.22;;;14.30;;
55931;SDS011;41837;55.700;37.984;2022-12-15T04:05:23;38.20;;;15.60;;
55931;SDS011;41837;55.700;37.984;2022-12-15T04:07:55;31.95;;;14.50;;
55931;SDS011;41837;55.700;37.984;2022-12-15T04:10:22;33.00;;;14.40;;
55931;SDS011;41837;55.700;37.984;2022-12-15T04:12:59;34.42;;;14.07;;
55931;SDS011;41837;55.700;37.984;2022-12-15T04:15:31;35.85;;;13.73;;
55931;SDS011;41837;55.700;37.984;2022-12-15T04:18:00;39.63;;;13.70;;
55931;SDS011;41837;55.700;37.984;2022-12-15T04:20:28;31.38;;;13.00;;
55931;SDS011;41837;55.700;37.984;2022-12-15T04:22:54;34.03;;;14.55;;
55931;SDS011;41837;55.700;37.984;2022-12-15T04:25:22;36.17;;;14.40;;
55931;SDS011;41837;55.700;37.984;2022-12-15T04:28:09;35.45;;;14.85;;
55931;SDS011;41837;55.700;37.984;2022-12-15T04:31:05;36.20;;;13.57;;
55931;SDS011;41837;55.700;37.984;2022-12-15T04:33:57;38.53;;;14.95;;
55931;SDS011;41837;55.700;37.984;2022-12-15T04:36:45;38.17;;;14.40;;
55931;SDS011;41837;55.700;37.984;2022-12-15T04:39:34;33.35;;;14.55;;
55931;SDS011;41837;55.700;37.984;2022-12-15T04:42:25;40.58;;;15.38;;
55931;SDS011;41837;55.700;37.984;2022-12-15T04:45:11;33.38;;;14.05;;
55931;SDS011;41837;55.700;37.984;2022-12-15T04:47:58;30.90;;;13.52;;
55931;SDS011;41837;55.700;37.984;2022-12-15T04:50:43;30.85;;;13.50;;
55931;SDS011;41837;55.700;37.984;2022-12-15T04:53:28;28.95;;;13.48;;
55931;SDS011;41837;55.700;37.984;2022-12-15T04:56:14;28.70;;;11.85;;
55931;SDS011;41837;55.700;37.984;2022-12-15T04:59:00;27.10;;;11.75;;
55931;SDS011;41837;55.700;37.984;2022-12-15T05:01:45;26.25;;;12.05;;
55931;SDS011;41837;55.700;37.984;2022-12-15T05:04:31;24.45;;;11.48;;
55931;SDS011;41837;55.700;37.984;2022-12-15T05:07:16;26.50;;;11.70;;
55931;SDS011;41837;55.700;37.984;2022-12-15T05:10:02;23.10;;;11.32;;
55931;SDS011;41837;55.700;37.984;2022-12-15T05:12:48;23.85;;;11.25;;
55931;SDS011;41837;55.700;37.984;2022-12-15T05:15:33;23.77;;;11.07;;
55931;SDS011;41837;55.700;37.984;2022-12-15T05:18:18;23.65;;;10.38;;
55931;SDS011;41837;55.700;37.984;2022-12-15T05:21:03;24.48;;;10.65;;
55931;SDS011;41837;55.700;37.984;2022-12-15T05:23:48;21.70;;;10.18;;
55931;SDS011;41837;55.700;37.984;2022-12-15T05:26:34;23.33;;;10.18;;
55931;SDS011;41837;55.700;37.984;2022-12-15T05:29:19;23.23;;;11.02;;
55931;SDS011;41837;55.700;37.984;2022-12-15T05:32:05;27.45;;;10.95;;
55931;SDS011;41837;55.700;37.984;2022-12-15T05:34:33;31.30;;;12.68;;
55931;SDS011;41837;55.700;37.984;2022-12-15T05:37:00;32.17;;;13.43;;
55931;SDS011;41837;55.700;37.984;2022-12-15T05:39:28;33.85;;;13.60;;
55931;SDS011;41837;55.700;37.984;2022-12-15T05:41:55;35.28;;;16.38;;
55931;SDS011;41837;55.700;37.984;2022-12-15T05:44:22;46.92;;;19.00;;
55931;SDS011;41837;55.700;37.984;2022-12-15T05:46:49;42.80;;;18.40;;
55931;SDS011;41837;55.700;37.984;2022-12-15T05:49:16;46.53;;;17.33;;
55931;SDS011;41837;55.700;37.984;2022-12-15T05:51:44;48.28;;;18.48;;
55931;SDS011;41837;55.700;37.984;2022-12-15T05:54:13;48.78;;;19.08;;
55931;SDS011;41837;55.700;37.984;2022-12-15T05:56:41;87.65;;;38.17;;
55931;SDS011;41837;55.700;37.984;2022-12-15T05:59:08;93.93;;;42.47;;
55931;SDS011;41837;55.700;37.984;2022-12-15T06:01:34;113.47;;;50.65;;
55931;SDS011;41837;55.700;37.984;2022-12-15T06:04:02;100.22;;;45.45;;
55931;SDS011;41837;55.700;37.984;2022-12-15T06:06:28;90.57;;;44.17;;
55931;SDS011;41837;55.700;37.984;2022-12-15T06:08:55;87.28;;;40.95;;
55931;SDS011;41837;55.700;37.984;2022-12-15T06:11:22;104.63;;;47.72;;
55931;SDS011;41837;55.700;37.984;2022-12-15T06:13:48;137.65;;;56.03;;
55931;SDS011;41837;55.700;37.984;2022-12-15T06:16:16;166.18;;;66.20;;
55931;SDS011;41837;55.700;37.984;2022-12-15T06:18:44;174.00;;;66.47;;
55931;SDS011;41837;55.700;37.984;2022-12-15T06:21:13;145.70;;;55.60;;
55931;SDS011;41837;55.700;37.984;2022-12-15T06:23:41;122.70;;;43.05;;
55931;SDS011;41837;55.700;37.984;2022-12-15T06:28:36;147.48;;;54.78;;
55931;SDS011;41837;55.700;37.984;2022-12-15T06:31:03;126.40;;;51.28;;
55931;SDS011;41837;55.700;37.984;2022-12-15T06:33:32;106.80;;;43.28;;
55931;SDS011;41837;55.700;37.984;2022-12-15T06:36:02;91.28;;;39.90;;
55931;SDS011;41837;55.700;37.984;2022-12-15T06:38:31;87.97;;;36.40;;
55931;SDS011;41837;55.700;37.984;2022-12-15T06:40:58;73.53;;;30.75;;
55931;SDS011;41837;55.700;37.984;2022-12-15T06:43:26;116.57;;;43.55;;
55931;SDS011;41837;55.700;37.984;2022-12-15T06:45:53;170.98;;;68.95;;
55931;SDS011;41837;55.700;37.984;2022-12-15T06:48:21;93.30;;;36.50;;
55931;SDS011;41837;55.700;37.984;2022-12-15T06:50:49;36.53;;;15.02;;
55931;SDS011;41837;55.700;37.984;2022-12-15T06:53:16;33.40;;;14.50;;
55931;SDS011;41837;55.700;37.984;2022-12-15T06:55:43;42.85;;;17.63;;
55931;SDS011;41837;55.700;37.984;2022-12-15T06:58:10;37.42;;;16.35;;
55931;SDS011;41837;55.700;37.984;2022-12-15T07:00:38;39.88;;;15.63;;
55931;SDS011;41837;55.700;37.984;2022-12-15T07:03:06;47.38;;;22.50;;
55931;SDS011;41837;55.700;37.984;2022-12-15T07:05:33;36.88;;;15.55;;
55931;SDS011;41837;55.700;37.984;2022-12-15T07:07:59;34.58;;;13.85;;
55931;SDS011;41837;55.700;37.984;2022-12-15T07:10:26;32.90;;;14.40;;
55931;SDS011;41837;55.700;37.984;2022-12-15T07:12:52;51.35;;;24.05;;
55931;SDS011;41837;55.700;37.984;2022-12-15T07:15:22;60.17;;;27.88;;
55931;SDS011;41837;55.700;37.984;2022-12-15T07:17:48;56.03;;;26.17;;
55931;SDS011;41837;55.700;37.984;2022-12-15T07:20:15;40.63;;;18.02;;
55931;SDS011;41837;55.700;37.984;2022-12-15T07:22:41;33.50;;;14.23;;
55931;SDS011;41837;55.700;37.984;2022-12-15T07:25:08;29.83;;;14.07;;
55931;SDS011;41837;55.700;37.984;2022-12-15T07:27:34;32.63;;;14.52;;
55931;SDS011;41837;55.700;37.984;2022-12-15T07:30:01;32.08;;;14.40;;
55931;SDS011;41837;55.700;37.984;2022-12-15T07:32:28;31.77;;;14.68;;
55931;SDS011;41837;55.700;37.984;2022-12-15T07:34:55;50.55;;;21.88;;
55931;SDS011;41837;55.700;37.984;2022-12-15T07:37:21;43.17;;;19.48;;
55931;SDS011;41837;55.700;37.984;2022-12-15T07:39:48;31.55;;;13.75;;
55931;SDS011;41837;55.700;37.984;2022-12-15T07:42:15;32.85;;;15.73;;
55931;SDS011;41837;55.700;37.984;2022-12-15T07:44:43;42.72;;;19.02;;
55931;SDS011;41837;55.700;37.984;2022-12-15T07:47:09;66.95;;;27.55;;
55931;SDS011;41837;55.700;37.984;2022-12-15T07:49:35;90.13;;;39.72;;
55931;SDS011;41837;55.700;37.984;2022-12-15T07:52:02;51.17;;;23.75;;
55931;SDS011;41837;55.700;37.984;2022-12-15T07:54:29;37.00;;;17.58;;
55931;SDS011;41837;55.700;37.984;2022-12-15T07:56:55;32.03;;;13.02;;
55931;SDS011;41837;55.700;37.984;2022-12-15T07:59:21;34.45;;;12.93;;
55931;SDS011;41837;55.700;37.984;2022-12-15T08:01:48;44.30;;;19.27;;
55931;SDS011;41837;55.700;37.984;2022-12-15T08:04:15;40.72;;;18.45;;
55931;SDS011;41837;55.700;37.984;2022-12-15T08:06:41;35.65;;;16.77;;
55931;SDS011;41837;55.700;37.984;2022-12-15T08:09:08;43.05;;;20.98;;
55931;SDS011;41837;55.700;37.984;2022-12-15T08:11:35;56.58;;;31.52;;
55931;SDS011;41837;55.700;37.984;2022-12-15T08:14:02;61.80;;;32.75;;
55931;SDS011;41837;55.700;37.984;2022-12-15T08:16:28;55.22;;;26.38;;
55931;SDS011;41837;55.700;37.984;2022-12-15T08:18:55;46.92;;;19.08;;
55931;SDS011;41837;55.700;37.984;2022-12-15T08:21:21;44.47;;;23.20;;
55931;SDS011;41837;55.700;37.984;2022-12-15T08:23:47;56.35;;;28.75;;
55931;SDS011;41837;55.700;37.984;2022-12-15T08:26:15;42.70;;;22.13;;
55931;SDS011;41837;55.700;37.984;2022-12-15T08:28:42;41.00;;;20.17;;
55931;SDS011;41837;55.700;37.984;2022-12-15T08:31:11;47.90;;;23.52;;
55931;SDS011;41837;55.700;37.984;2022-12-15T08:33:43;51.22;;;27.33;;
55931;SDS011;41837;55.700;37.984;2022-12-15T08:36:11;28.42;;;12.88;;
55931;SDS011;41837;55.700;37.984;2022-12-15T08:38:38;28.65;;;11.77;;
55931;SDS011;41837;55.700;37.984;2022-12-15T08:41:08;29.77;;;13.55;;
55931;SDS011;41837;55.700;37.984;2022-12-15T08:43:39;36.28;;;17.00;;
55931;SDS011;41837;55.700;37.984;2022-12-15T08:46:06;36.25;;;16.95;;
55931;SDS011;41837;55.700;37.984;2022-12-15T08:48:33;26.50;;;12.25;;
55931;SDS011;41837;55.700;37.984;2022-12-15T08:51:00;23.30;;;11.70;;
55931;SDS011;41837;55.700;37.984;2022-12-15T08:53:27;47.58;;;28.45;;
55931;SDS011;41837;55.700;37.984;2022-12-15T08:55:53;73.07;;;37.75;;
55931;SDS011;41837;55.700;37.984;2022-12-15T08:58:19;51.95;;;25.77;;
55931;SDS011;41837;55.700;37.984;2022-12-15T09:00:45;32.92;;;16.75;;
55931;SDS011;41837;55.700;37.984;2022-12-15T09:03:12;41.90;;;23.35;;
55931;SDS011;41837;55.700;37.984;2022-12-15T09:05:38;39.55;;;21.98;;
55931;SDS011;41837;55.700;37.984;2022-12-15T09:08:05;35.20;;;20.00;;
55931;SDS011;41837;55.700;37.984;2022-12-15T09:10:31;28.75;;;16.00;;
55931;SDS011;41837;55.700;37.984;2022-12-15T09:12:57;30.77;;;13.82;;
55931;SDS011;41837;55.700;37.984;2022-12-15T09:15:24;24.17;;;12.27;;
55931;SDS011;41837;55.700;37.984;2022-12-15T09:17:50;31.98;;;13.82;;
55931;SDS011;41837;55.700;37.984;2022-12-15T09:20:16;26.33;;;15.55;;
55931;SDS011;41837;55.700;37.984;2022-12-15T09:22:43;40.15;;;22.77;;
55931;SDS011;41837;55.700;37.984;2022-12-15T09:25:13;28.55;;;14.38;;
55931;SDS011;41837;55.700;37.984;2022-12-15T09:27:39;24.08;;;12.52;;
55931;SDS011;41837;55.700;37.984;2022-12-15T09:30:09;21.42;;;10.80;;
55931;SDS011;41837;55.700;37.984;2022-12-15T09:32:36;26.60;;;12.25;;
55931;SDS011;41837;55.700;37.984;2022-12-15T09:35:02;26.90;;;13.75;;
55931;SDS011;41837;55.700;37.984;2022-12-15T09:37:29;21.73;;;11.35;;
55931;SDS011;41837;55.700;37.984;2022-12-15T09:39:57;22.23;;;10.68;;
55931;SDS011;41837;55.700;37.984;2022-12-15T09:42:25;24.70;;;11.45;;
55931;SDS011;41837;55.700;37.984;2022-12-15T09:45:08;22.15;;;10.90;;
55931;SDS011;41837;55.700;37.984;2022-12-15T09:47:53;26.85;;;12.82;;
55931;SDS011;41837;55.700;37.984;2022-12-15T09:50:28;23.25;;;11.55;;
55931;SDS011;41837;55.700;37.984;2022-12-15T09:53:00;26.00;;;13.10;;
55931;SDS011;41837;55.700;37.984;2022-12-15T09:55:28;30.55;;;13.07;;
55931;SDS011;41837;55.700;37.984;2022-12-15T10:06:01;27.10;;;12.68;;
55931;SDS011;41837;55.700;37.984;2022-12-15T10:08:41;28.38;;;11.15;;
55931;SDS011;41837;55.700;37.984;2022-12-15T10:13:57;23.67;;;10.65;;
55931;SDS011;41837;55.700;37.984;2022-12-15T10:16:30;23.33;;;9.70;;
55931;SDS011;41837;55.700;37.984;2022-12-15T10:22:04;26.23;;;12.05;;
55931;SDS011;41837;55.700;37.984;2022-12-15T10:24:36;27.60;;;11.77;;
55931;SDS011;41837;55.700;37.984;2022-12-15T10:30:08;25.90;;;12.13;;
55931;SDS011;41837;55.700;37.984;2022-12-15T10:35:16;26.08;;;11.43;;
55931;SDS011;41837;55.700;37.984;2022-12-15T10:37:47;25.83;;;11.40;;
55931;SDS011;41837;55.700;37.984;2022-12-15T10:40:15;26.17;;;11.57;;
55931;SDS011;41837;55.700;37.984;2022-12-15T10:42:47;26.02;;;11.98;;
55931;SDS011;41837;55.700;37.984;2022-12-15T10:45:29;31.05;;;12.98;;
55931;SDS011;41837;55.700;37.984;2022-12-15T10:48:00;30.83;;;13.40;;
55931;SDS011;41837;55.700;37.984;2022-12-15T10:50:27;31.30;;;13.63;;
55931;SDS011;41837;55.700;37.984;2022-12-15T10:52:53;31.80;;;13.35;;
55931;SDS011;41837;55.700;37.984;2022-12-15T10:58:18;35.65;;;16.00;;
55931;SDS011;41837;55.700;37.984;2022-12-15T11:00:47;33.20;;;15.95;;
55931;SDS011;41837;55.700;37.984;2022-12-15T11:03:24;30.83;;;13.98;;
55931;SDS011;41837;55.700;37.984;2022-12-15T11:05:55;24.92;;;12.90;;
55931;SDS011;41837;55.700;37.984;2022-12-15T11:08:22;31.45;;;13.73;;
55931;SDS011;41837;55.700;37.984;2022-12-15T11:10:54;28.40;;;13.38;;
55931;SDS011;41837;55.700;37.984;2022-12-15T11:13:40;28.80;;;12.95;;
55931;SDS011;41837;55.700;37.984;2022-12-15T11:16:18;33.05;;;13.52;;
55931;SDS011;41837;55.700;37.984;2022-12-15T11:18:49;30.15;;;13.55;;
55931;SDS011;41837;55.700;37.984;2022-12-15T11:21:19;30.27;;;12.82;;
55931;SDS011;41837;55.700;37.984;2022-12-15T11:31:40;31.25;;;13.65;;
55931;SDS011;41837;55.700;37.984;2022-12-15T11:34:12;30.55;;;14.05;;
55931;SDS011;41837;55.700;37.984;2022-12-15T11:37:00;29.10;;;13.15;;
55931;SDS011;41837;55.700;37.984;2022-12-15T11:39:59;30.00;;;13.50;;
55931;SDS011;41837;55.700;37.984;2022-12-15T11:54:44;30.42;;;13.30;;
55931;SDS011;41837;55.700;37.984;2022-12-15T12:00:19;37.70;;;14.57;;
55931;SDS011;41837;55.700;37.984;2022-12-15T12:10:38;36.10;;;15.30;;
55931;SDS011;41837;55.700;37.984;2022-12-15T12:19:01;38.67;;;14.77;;
55931;SDS011;41837;55.700;37.984;2022-12-15T12:21:36;36.95;;;15.95;;
55931;SDS011;41837;55.700;37.984;2022-12-15T12:24:16;42.55;;;16.77;;
55931;SDS011;41837;55.700;37.984;2022-12-15T12:29:59;35.25;;;15.20;;
55931;SDS011;41837;55.700;37.984;2022-12-15T12:32:36;37.15;;;16.25;;
55931;SDS011;41837;55.700;37.984;2022-12-15T12:38:03;32.88;;;14.30;;
55931;SDS011;41837;55.700;37.984;2022-12-15T12:43:10;34.20;;;13.55;;
55931;SDS011;41837;55.700;37.984;2022-12-15T12:48:25;33.50;;;13.57;;
55931;SDS011;41837;55.700;37.984;2022-12-15T12:51:18;31.92;;;13.40;;
55931;SDS011;41837;55.700;37.984;2022-12-15T12:53:47;31.38;;;13.35;;
55931;SDS011;41837;55.700;37.984;2022-12-15T12:56:30;36.33;;;14.88;;
55931;SDS011;41837;55.700;37.984;2022-12-15T12:59:30;27.52;;;11.18;;
55931;SDS011;41837;55.700;37.984;2022-12-15T13:01:54;33.45;;;13.63;;
55931;SDS011;41837;55.700;37.984;2022-12-15T13:07:02;33.28;;;13.45;;
55931;SDS011;41837;55.700;37.984;2022-12-15T13:09:43;35.97;;;14.60;;
55931;SDS011;41837;55.700;37.984;2022-12-15T13:17:53;32.03;;;13.57;;
55931;SDS011;41837;55.700;37.984;2022-12-15T13:20:29;37.05;;;13.05;;
55931;SDS011;41837;55.700;37.984;2022-12-15T13:28:36;30.38;;;13.18;;
55931;SDS011;41837;55.700;37.984;2022-12-15T13:39:04;49.67;;;17.02;;
55931;SDS011;41837;55.700;37.984;2022-12-15T13:41:43;67.85;;;23.95;;
55931;SDS011;41837;55.700;37.984;2022-12-15T13:44:27;43.55;;;17.77;;
55931;SDS011;41837;55.700;37.984;2022-12-15T13:49:36;41.60;;;16.13;;
55931;SDS011;41837;55.700;37.984;2022-12-15T13:54:56;49.95;;;22.55;;
55931;SDS011;41837;55.700;37.984;2022-12-15T13:57:25;51.70;;;21.00;;
55931;SDS011;41837;55.700;37.984;2022-12-15T14:00:02;48.47;;;21.40;;
55931;SDS011;41837;55.700;37.984;2022-12-15T14:02:37;48.03;;;20.90;;
55931;SDS011;41837;55.700;37.984;2022-12-15T14:07:40;44.53;;;17.80;;
55931;SDS011;41837;55.700;37.984;2022-12-15T14:10:20;36.10;;;14.15;;
55931;SDS011;41837;55.700;37.984;2022-12-15T14:12:49;32.70;;;13.80;;
55931;SDS011;41837;55.700;37.984;2022-12-15T14:15:19;36.65;;;13.73;;
55931;SDS011;41837;55.700;37.984;2022-12-15T14:17:53;32.22;;;13.07;;
55931;SDS011;41837;55.700;37.984;2022-12-15T14:20:23;36.63;;;13.63;;
55931;SDS011;41837;55.700;37.984;2022-12-15T14:22:52;35.10;;;13.98;;
55931;SDS011;41837;55.700;37.984;2022-12-15T14:25:26;36.05;;;13.77;;
55931;SDS011;41837;55.700;37.984;2022-12-15T14:27:54;32.85;;;12.82;;
55931;SDS011;41837;55.700;37.984;2022-12-15T14:30:25;35.70;;;12.68;;
55931;SDS011;41837;55.700;37.984;2022-12-15T14:38:06;34.85;;;13.65;;
55931;SDS011;41837;55.700;37.984;2022-12-15T14:40:37;33.13;;;13.48;;
55931;SDS011;41837;55.700;37.984;2022-12-15T14:43:07;37.47;;;14.07;;
55931;SDS011;41837;55.700;37.984;2022-12-15T14:45:49;34.20;;;13.02;;
55931;SDS011;41837;55.700;37.984;2022-12-15T14:48:24;35.40;;;12.43;;
55931;SDS011;41837;55.700;37.984;2022-12-15T14:50:56;38.65;;;13.75;;
55931;SDS011;41837;55.700;37.984;2022-12-15T14:53:25;36.70;;;13.73;;
55931;SDS011;41837;55.700;37.984;2022-12-15T14:59:02;29.50;;;11.52;;
55931;SDS011;41837;55.700;37.984;2022-12-15T15:01:52;26.13;;;10.30;;
55931;SDS011;41837;55.700;37.984;2022-12-15T15:04:33;30.95;;;12.48;;
55931;SDS011;41837;55.700;37.984;2022-12-15T15:07:13;40.72;;;14.13;;
55931;SDS011;41837;55.700;37.984;2022-12-15T15:09:43;43.63;;;14.48;;
55931;SDS011;41837;55.700;37.984;2022-12-15T15:12:21;35.38;;;13.68;;
55931;SDS011;41837;55.700;37.984;2022-12-15T15:17:37;34.35;;;13.52;;
55931;SDS011;41837;55.700;37.984;2022-12-15T15:20:23;35.70;;;13.20;;
55931;SDS011;41837;55.700;37.984;2022-12-15T15:25:38;34.80;;;13.02;;
55931;SDS011;41837;55.700;37.984;2022-12-15T15:28:12;31.88;;;12.43;;
55931;SDS011;41837;55.700;37.984;2022-12-15T15:30:45;33.60;;;11.63;;
55931;SDS011;41837;55.700;37.984;2022-12-15T15:33:16;37.58;;;13.63;;
55931;SDS011;41837;55.700;37.984;2022-12-15T15:35:44;30.35;;;11.35;;
55931;SDS011;41837;55.700;37.984;2022-12-15T15:38:27;33.90;;;13.13;;
55931;SDS011;41837;55.700;37.984;2022-12-15T15:40:57;33.28;;;12.52;;
55931;SDS011;41837;55.700;37.984;2022-12-15T15:43:25;37.00;;;12.85;;
55931;SDS011;41837;55.700;37.984;2022-12-15T15:49:00;29.95;;;11.50;;
55931;SDS011;41837;55.700;37.984;2022-12-15T15:51:30;36.90;;;13.07;;
55931;SDS011;41837;55.700;37.984;2022-12-15T15:54:05;33.00;;;11.95;;
55931;SDS011;41837;55.700;37.984;2022-12-15T15:56:35;46.17;;;11.43;;
55931;SDS011;41837;55.700;37.984;2022-12-15T15:59:08;35.35;;;11.98;;
55931;SDS011;41837;55.700;37.984;2022-12-15T16:01:36;30.38;;;10.32;;
55931;SDS011;41837;55.700;37.984;2022-12-15T16:04:03;45.72;;;13.55;;
55931;SDS011;41837;55.700;37.984;2022-12-15T16:06:31;29.48;;;11.18;;
55931;SDS011;41837;55.700;37.984;2022-12-15T16:08:58;33.15;;;12.02;;
55931;SDS011;41837;55.700;37.984;2022-12-15T16:11:24;34.00;;;12.25;;
55931;SDS011;41837;55.700;37.984;2022-12-15T16:13:53;34.15;;;11.48;;
55931;SDS011;41837;55.700;37.984;2022-12-15T16:16:22;36.33;;;13.10;;
55931;SDS011;41837;55.700;37.984;2022-12-15T16:18:52;37.03;;;12.13;;
55931;SDS011;41837;55.700;37.984;2022-12-15T16:21:19;32.47;;;11.48;;
55931;SDS011;41837;55.700;37.984;2022-12-15T16:23:49;39.92;;;12.23;;
55931;SDS011;41837;55.700;37.984;2022-12-15T16:26:16;35.80;;;12.13;;
55931;SDS011;41837;55.700;37.984;2022-12-15T16:28:52;35.97;;;12.75;;
55931;SDS011;41837;55.700;37.984;2022-12-15T16:33:54;38.55;;;11.85;;
55931;SDS011;41837;55.700;37.984;2022-12-15T16:36:22;37.17;;;13.13;;
55931;SDS011;41837;55.700;37.984;2022-12-15T16:38:50;30.58;;;11.55;;
55931;SDS011;41837;55.700;37.984;2022-12-15T16:41:16;39.80;;;13.65;;
55931;SDS011;41837;55.700;37.984;2022-12-15T16:43:43;31.88;;;12.57;;
55931;SDS011;41837;55.700;37.984;2022-12-15T16:46:12;37.53;;;14.40;;
55931;SDS011;41837;55.700;37.984;2022-12-15T16:48:40;37.47;;;14.07;;
55931;SDS011;41837;55.700;37.984;2022-12-15T16:51:07;33.47;;;11.82;;
55931;SDS011;41837;55.700;37.984;2022-12-15T16:53:35;44.70;;;13.90;;
55931;SDS011;41837;55.700;37.984;2022-12-15T16:56:04;35.63;;;12.52;;
55931;SDS011;41837;55.700;37.984;2022-12-15T16:58:36;30.92;;;13.90;;
55931;SDS011;41837;55.700;37.984;2022-12-15T17:01:03;32.85;;;12.68;;
55931;SDS011;41837;55.700;37.984;2022-12-15T17:03:29;39.92;;;16.17;;
55931;SDS011;41837;55.700;37.984;2022-12-15T17:05:57;39.35;;;14.27;;
55931;SDS011;41837;55.700;37.984;2022-12-15T17:08:33;40.45;;;14.50;;
55931;SDS011;41837;55.700;37.984;2022-12-15T17:11:08;36.00;;;14.25;;
55931;SDS011;41837;55.700;37.984;2022-12-15T17:13:42;35.33;;;12.65;;
55931;SDS011;41837;55.700;37.984;2022-12-15T17:16:12;33.08;;;12.70;;
55931;SDS011;41837;55.700;37.984;2022-12-15T17:18:39;37.60;;;13.35;;
55931;SDS011;41837;55.700;37.984;2022-12-15T17:21:07;33.40;;;12.65;;